sensor_id;sensor_type;location;lat;lon;timestamp;P1;durP1;ratioP1;P2;durP2;ratioP2
37339;SDS011;23223;51.006;7.610;2023-10-31T00:01:13;0.57;;;0.57;;
37339;SDS011;23223;51.006;7.610;2023-10-31T00:03:39;0.75;;;0.75;;
37339;SDS011;23223;51.006;7.610;2023-10-31T00:06:05;0.88;;;0.88;;
37339;SDS011;23223;51.006;7.610;2023-10-31T00:08:31;0.95;;;0.73;;
37339;SDS011;23223;51.006;7.610;2023-10-31T00:10:57;0.63;;;0.63;;
37339;SDS011;23223;51.006;7.610;2023-10-31T00:13:22;1.00;;;0.60;;
37339;SDS011;23223;51.006;7.610;2023-10-31T00:15:48;2.20;;;0.90;;
37339;SDS011;23223;51.006;7.610;2023-10-31T00:18:13;0.95;;;0.90;;
37339;SDS011;23223;51.006;7.610;2023-10-31T00:20:40;1.77;;;0.95;;
37339;SDS011;23223;51.006;7.610;2023-10-31T00:23:07;1.63;;;0.80;;
37339;SDS011;23223;51.006;7.610;2023-10-31T00:25:33;1.48;;;0.77;;
37339;SDS011;23223;51.006;7.610;2023-10-31T00:27:59;1.00;;;0.80;;
37339;SDS011;23223;51.006;7.610;2023-10-31T00:30:29;3.10;;;0.60;;
37339;SDS011;23223;51.006;7.610;2023-10-31T00:32:54;0.70;;;0.70;;
37339;SDS011;23223;51.006;7.610;2023-10-31T00:35:20;0.60;;;0.60;;
37339;SDS011;23223;51.006;7.610;2023-10-31T00:37:45;2.58;;;0.90;;
37339;SDS011;23223;51.006;7.610;2023-10-31T00:40:11;0.80;;;0.60;;
37339;SDS011;23223;51.006;7.610;2023-10-31T00:42:37;0.93;;;0.80;;
37339;SDS011;23223;51.006;7.610;2023-10-31T00:45:04;0.80;;;0.80;;
37339;SDS011;23223;51.006;7.610;2023-10-31T00:47:30;0.75;;;0.70;;
37339;SDS011;23223;51.006;7.610;2023-10-31T00:49:57;1.35;;;0.90;;
37339;SDS011;23223;51.006;7.610;2023-10-31T00:52:23;1.20;;;1.10;;
37339;SDS011;23223;51.006;7.610;2023-10-31T00:54:49;2.80;;;0.80;;
37339;SDS011;23223;51.006;7.610;2023-10-31T00:57:14;1.38;;;1.23;;
37339;SDS011;23223;51.006;7.610;2023-10-31T00:59:40;0.82;;;0.82;;
37339;SDS011;23223;51.006;7.610;2023-10-31T01:02:08;1.10;;;1.00;;
37339;SDS011;23223;51.006;7.610;2023-10-31T01:04:35;1.23;;;1.23;;
37339;SDS011;23223;51.006;7.610;2023-10-31T01:07:02;1.35;;;0.75;;
37339;SDS011;23223;51.006;7.610;2023-10-31T01:09:27;1.05;;;1.05;;
37339;SDS011;23223;51.006;7.610;2023-10-31T01:11:55;1.02;;;1.02;;
37339;SDS011;23223;51.006;7.610;2023-10-31T01:14:21;1.23;;;1.13;;
37339;SDS011;23223;51.006;7.610;2023-10-31T01:16:46;1.42;;;1.23;;
37339;SDS011;23223;51.006;7.610;2023-10-31T01:19:12;1.88;;;1.33;;
37339;SDS011;23223;51.006;7.610;2023-10-31T01:21:38;1.20;;;1.10;;
37339;SDS011;23223;51.006;7.610;2023-10-31T01:24:03;2.25;;;1.25;;
37339;SDS011;23223;51.006;7.610;2023-10-31T01:26:29;1.02;;;1.00;;
37339;SDS011;23223;51.006;7.610;2023-10-31T01:28:55;0.90;;;0.90;;
37339;SDS011;23223;51.006;7.610;2023-10-31T01:31:21;1.20;;;1.20;;
37339;SDS011;23223;51.006;7.610;2023-10-31T01:33:46;1.40;;;1.30;;
37339;SDS011;23223;51.006;7.610;2023-10-31T01:36:12;1.27;;;1.02;;
37339;SDS011;23223;51.006;7.610;2023-10-31T01:38:43;1.98;;;1.70;;
37339;SDS011;23223;51.006;7.610;2023-10-31T01:41:08;1.52;;;1.30;;
37339;SDS011;23223;51.006;7.610;2023-10-31T01:43:35;1.73;;;1.25;;
37339;SDS011;23223;51.006;7.610;2023-10-31T01:46:03;3.70;;;2.10;;
37339;SDS011;23223;51.006;7.610;2023-10-31T01:48:30;1.55;;;1.45;;
37339;SDS011;23223;51.006;7.610;2023-10-31T01:50:58;5.60;;;1.75;;
37339;SDS011;23223;51.006;7.610;2023-10-31T01:53:27;1.92;;;1.38;;
37339;SDS011;23223;51.006;7.610;2023-10-31T01:55:54;1.20;;;1.10;;
37339;SDS011;23223;51.006;7.610;2023-10-31T01:58:23;1.77;;;1.40;;
37339;SDS011;23223;51.006;7.610;2023-10-31T02:00:56;2.78;;;1.88;;
37339;SDS011;23223;51.006;7.610;2023-10-31T02:03:22;1.33;;;1.23;;
37339;SDS011;23223;51.006;7.610;2023-10-31T02:05:48;1.98;;;1.50;;
37339;SDS011;23223;51.006;7.610;2023-10-31T02:08:16;3.63;;;1.35;;
37339;SDS011;23223;51.006;7.610;2023-10-31T02:10:42;4.28;;;2.33;;
37339;SDS011;23223;51.006;7.610;2023-10-31T02:13:14;1.50;;;1.38;;
37339;SDS011;23223;51.006;7.610;2023-10-31T02:15:41;4.65;;;1.73;;
37339;SDS011;23223;51.006;7.610;2023-10-31T02:18:08;1.80;;;1.20;;
37339;SDS011;23223;51.006;7.610;2023-10-31T02:20:36;3.00;;;2.17;;
37339;SDS011;23223;51.006;7.610;2023-10-31T02:23:02;1.27;;;1.20;;
37339;SDS011;23223;51.006;7.610;2023-10-31T02:25:28;5.10;;;1.98;;
37339;SDS011;23223;51.006;7.610;2023-10-31T02:27:54;3.88;;;1.90;;
37339;SDS011;23223;51.006;7.610;2023-10-31T02:30:20;3.17;;;1.77;;
37339;SDS011;23223;51.006;7.610;2023-10-31T02:32:56;4.85;;;1.70;;
37339;SDS011;23223;51.006;7.610;2023-10-31T02:35:21;1.75;;;1.60;;
37339;SDS011;23223;51.006;7.610;2023-10-31T02:37:47;1.98;;;1.38;;
37339;SDS011;23223;51.006;7.610;2023-10-31T02:40:13;2.97;;;1.70;;
37339;SDS011;23223;51.006;7.610;2023-10-31T02:42:39;1.52;;;1.27;;
37339;SDS011;23223;51.006;7.610;2023-10-31T02:45:05;2.05;;;1.85;;
37339;SDS011;23223;51.006;7.610;2023-10-31T02:47:31;3.88;;;1.60;;
37339;SDS011;23223;51.006;7.610;2023-10-31T02:49:57;1.67;;;1.30;;
37339;SDS011;23223;51.006;7.610;2023-10-31T02:52:22;1.83;;;1.30;;
37339;SDS011;23223;51.006;7.610;2023-10-31T02:54:48;4.78;;;1.65;;
37339;SDS011;23223;51.006;7.610;2023-10-31T02:57:14;2.97;;;1.10;;
37339;SDS011;23223;51.006;7.610;2023-10-31T02:59:43;1.00;;;0.95;;
37339;SDS011;23223;51.006;7.610;2023-10-31T03:02:08;2.92;;;1.25;;
37339;SDS011;23223;51.006;7.610;2023-10-31T03:04:41;6.35;;;2.05;;
37339;SDS011;23223;51.006;7.610;2023-10-31T03:07:07;2.20;;;1.40;;
37339;SDS011;23223;51.006;7.610;2023-10-31T03:09:33;3.63;;;1.60;;
37339;SDS011;23223;51.006;7.610;2023-10-31T03:15:17;1.70;;;1.25;;
37339;SDS011;23223;51.006;7.610;2023-10-31T03:17:42;7.15;;;1.85;;
37339;SDS011;23223;51.006;7.610;2023-10-31T03:20:08;3.78;;;1.38;;
37339;SDS011;23223;51.006;7.610;2023-10-31T03:22:35;4.35;;;1.70;;
37339;SDS011;23223;51.006;7.610;2023-10-31T03:25:00;4.57;;;1.38;;
37339;SDS011;23223;51.006;7.610;2023-10-31T03:27:26;3.45;;;1.98;;
37339;SDS011;23223;51.006;7.610;2023-10-31T03:29:51;3.00;;;1.33;;
37339;SDS011;23223;51.006;7.610;2023-10-31T03:32:17;4.88;;;1.45;;
37339;SDS011;23223;51.006;7.610;2023-10-31T03:34:43;3.78;;;1.90;;
37339;SDS011;23223;51.006;7.610;2023-10-31T03:37:08;2.47;;;0.93;;
37339;SDS011;23223;51.006;7.610;2023-10-31T03:39:34;4.97;;;1.60;;
37339;SDS011;23223;51.006;7.610;2023-10-31T03:41:59;2.13;;;1.48;;
37339;SDS011;23223;51.006;7.610;2023-10-31T03:44:25;3.25;;;1.65;;
37339;SDS011;23223;51.006;7.610;2023-10-31T03:46:51;3.90;;;1.38;;
37339;SDS011;23223;51.006;7.610;2023-10-31T03:49:16;4.72;;;1.77;;
37339;SDS011;23223;51.006;7.610;2023-10-31T03:51:42;5.18;;;1.77;;
37339;SDS011;23223;51.006;7.610;2023-10-31T03:54:10;3.35;;;1.30;;
37339;SDS011;23223;51.006;7.610;2023-10-31T03:56:39;5.47;;;1.95;;
37339;SDS011;23223;51.006;7.610;2023-10-31T03:59:08;4.82;;;1.50;;
37339;SDS011;23223;51.006;7.610;2023-10-31T04:01:34;2.67;;;1.55;;
37339;SDS011;23223;51.006;7.610;2023-10-31T04:04:00;6.30;;;1.73;;
37339;SDS011;23223;51.006;7.610;2023-10-31T04:06:26;7.07;;;1.83;;
37339;SDS011;23223;51.006;7.610;2023-10-31T04:08:52;2.85;;;1.42;;
37339;SDS011;23223;51.006;7.610;2023-10-31T04:11:17;3.65;;;1.73;;
37339;SDS011;23223;51.006;7.610;2023-10-31T04:13:43;2.83;;;1.90;;
37339;SDS011;23223;51.006;7.610;2023-10-31T04:16:08;2.47;;;1.50;;
37339;SDS011;23223;51.006;7.610;2023-10-31T04:18:35;6.38;;;1.60;;
37339;SDS011;23223;51.006;7.610;2023-10-31T04:21:04;4.38;;;1.50;;
37339;SDS011;23223;51.006;7.610;2023-10-31T04:23:30;1.85;;;1.50;;
37339;SDS011;23223;51.006;7.610;2023-10-31T04:25:56;3.80;;;1.95;;
37339;SDS011;23223;51.006;7.610;2023-10-31T04:28:21;4.30;;;1.88;;
37339;SDS011;23223;51.006;7.610;2023-10-31T04:30:49;5.35;;;1.65;;
37339;SDS011;23223;51.006;7.610;2023-10-31T04:33:15;4.38;;;1.48;;
37339;SDS011;23223;51.006;7.610;2023-10-31T04:35:40;4.53;;;1.65;;
37339;SDS011;23223;51.006;7.610;2023-10-31T04:38:06;4.63;;;2.00;;
37339;SDS011;23223;51.006;7.610;2023-10-31T04:40:32;6.03;;;1.80;;
37339;SDS011;23223;51.006;7.610;2023-10-31T04:43:00;4.95;;;1.83;;
37339;SDS011;23223;51.006;7.610;2023-10-31T04:45:26;5.45;;;1.33;;
37339;SDS011;23223;51.006;7.610;2023-10-31T04:47:51;3.35;;;1.58;;
37339;SDS011;23223;51.006;7.610;2023-10-31T04:50:17;2.03;;;1.50;;
37339;SDS011;23223;51.006;7.610;2023-10-31T04:52:43;5.03;;;1.90;;
37339;SDS011;23223;51.006;7.610;2023-10-31T04:55:08;3.25;;;1.50;;
37339;SDS011;23223;51.006;7.610;2023-10-31T04:57:34;3.38;;;1.40;;
37339;SDS011;23223;51.006;7.610;2023-10-31T05:00:00;6.25;;;1.35;;
37339;SDS011;23223;51.006;7.610;2023-10-31T05:02:25;2.75;;;1.65;;
37339;SDS011;23223;51.006;7.610;2023-10-31T05:04:54;1.77;;;1.20;;
37339;SDS011;23223;51.006;7.610;2023-10-31T05:07:19;2.92;;;1.23;;
37339;SDS011;23223;51.006;7.610;2023-10-31T05:09:45;5.10;;;1.65;;
37339;SDS011;23223;51.006;7.610;2023-10-31T05:12:11;1.92;;;1.50;;
37339;SDS011;23223;51.006;7.610;2023-10-31T05:14:37;2.55;;;1.23;;
37339;SDS011;23223;51.006;7.610;2023-10-31T05:17:03;2.15;;;1.38;;
37339;SDS011;23223;51.006;7.610;2023-10-31T05:19:29;3.75;;;1.33;;
37339;SDS011;23223;51.006;7.610;2023-10-31T05:21:55;3.90;;;1.40;;
37339;SDS011;23223;51.006;7.610;2023-10-31T05:24:20;5.85;;;1.60;;
37339;SDS011;23223;51.006;7.610;2023-10-31T05:26:46;4.43;;;1.17;;
37339;SDS011;23223;51.006;7.610;2023-10-31T05:29:12;1.85;;;1.45;;
37339;SDS011;23223;51.006;7.610;2023-10-31T05:31:37;2.67;;;1.30;;
37339;SDS011;23223;51.006;7.610;2023-10-31T05:34:03;5.60;;;1.55;;
37339;SDS011;23223;51.006;7.610;2023-10-31T05:36:29;2.20;;;1.20;;
37339;SDS011;23223;51.006;7.610;2023-10-31T05:38:57;1.90;;;1.30;;
37339;SDS011;23223;51.006;7.610;2023-10-31T05:41:23;7.57;;;1.88;;
37339;SDS011;23223;51.006;7.610;2023-10-31T05:43:49;8.35;;;1.60;;
37339;SDS011;23223;51.006;7.610;2023-10-31T05:46:14;2.50;;;1.38;;
37339;SDS011;23223;51.006;7.610;2023-10-31T05:48:44;3.25;;;1.30;;
37339;SDS011;23223;51.006;7.610;2023-10-31T05:51:11;2.33;;;1.83;;
37339;SDS011;23223;51.006;7.610;2023-10-31T05:53:39;2.50;;;1.45;;
37339;SDS011;23223;51.006;7.610;2023-10-31T05:56:05;4.53;;;2.00;;
37339;SDS011;23223;51.006;7.610;2023-10-31T05:58:34;2.55;;;1.60;;
37339;SDS011;23223;51.006;7.610;2023-10-31T06:01:01;4.95;;;1.98;;
37339;SDS011;23223;51.006;7.610;2023-10-31T06:03:27;2.92;;;1.80;;
37339;SDS011;23223;51.006;7.610;2023-10-31T06:05:52;2.17;;;1.70;;
37339;SDS011;23223;51.006;7.610;2023-10-31T06:08:18;5.45;;;2.45;;
37339;SDS011;23223;51.006;7.610;2023-10-31T06:10:44;7.63;;;2.00;;
37339;SDS011;23223;51.006;7.610;2023-10-31T06:13:09;2.10;;;1.90;;
37339;SDS011;23223;51.006;7.610;2023-10-31T06:15:35;2.88;;;2.10;;
37339;SDS011;23223;51.006;7.610;2023-10-31T06:18:00;6.00;;;1.98;;
37339;SDS011;23223;51.006;7.610;2023-10-31T06:20:26;2.08;;;1.80;;
37339;SDS011;23223;51.006;7.610;2023-10-31T06:22:51;3.90;;;2.22;;
37339;SDS011;23223;51.006;7.610;2023-10-31T06:25:17;2.40;;;2.10;;
37339;SDS011;23223;51.006;7.610;2023-10-31T06:27:43;3.22;;;1.67;;
37339;SDS011;23223;51.006;7.610;2023-10-31T06:30:08;8.05;;;2.75;;
37339;SDS011;23223;51.006;7.610;2023-10-31T06:32:34;4.60;;;1.65;;
37339;SDS011;23223;51.006;7.610;2023-10-31T06:35:01;3.95;;;2.33;;
37339;SDS011;23223;51.006;7.610;2023-10-31T06:37:27;8.77;;;4.32;;
37339;SDS011;23223;51.006;7.610;2023-10-31T06:39:53;4.10;;;3.38;;
37339;SDS011;23223;51.006;7.610;2023-10-31T06:42:18;3.78;;;2.70;;
37339;SDS011;23223;51.006;7.610;2023-10-31T06:44:44;5.60;;;2.88;;
37339;SDS011;23223;51.006;7.610;2023-10-31T06:47:09;5.05;;;3.80;;
37339;SDS011;23223;51.006;7.610;2023-10-31T06:49:35;5.00;;;4.10;;
37339;SDS011;23223;51.006;7.610;2023-10-31T06:52:01;6.60;;;4.22;;
37339;SDS011;23223;51.006;7.610;2023-10-31T06:54:28;4.47;;;3.45;;
37339;SDS011;23223;51.006;7.610;2023-10-31T06:56:55;4.60;;;4.10;;
37339;SDS011;23223;51.006;7.610;2023-10-31T06:59:21;4.10;;;3.38;;
37339;SDS011;23223;51.006;7.610;2023-10-31T07:01:46;4.15;;;3.75;;
37339;SDS011;23223;51.006;7.610;2023-10-31T07:04:12;6.15;;;4.28;;
37339;SDS011;23223;51.006;7.610;2023-10-31T07:06:38;5.07;;;4.45;;
37339;SDS011;23223;51.006;7.610;2023-10-31T07:09:04;4.97;;;4.47;;
37339;SDS011;23223;51.006;7.610;2023-10-31T07:11:30;4.95;;;3.40;;
37339;SDS011;23223;51.006;7.610;2023-10-31T07:14:00;3.45;;;3.10;;
37339;SDS011;23223;51.006;7.610;2023-10-31T07:16:27;3.67;;;3.03;;
37339;SDS011;23223;51.006;7.610;2023-10-31T07:18:55;2.55;;;2.35;;
37339;SDS011;23223;51.006;7.610;2023-10-31T07:21:21;2.95;;;2.65;;
37339;SDS011;23223;51.006;7.610;2023-10-31T07:23:46;3.88;;;3.47;;
37339;SDS011;23223;51.006;7.610;2023-10-31T07:26:12;2.95;;;2.72;;
37339;SDS011;23223;51.006;7.610;2023-10-31T07:28:40;5.72;;;3.10;;
37339;SDS011;23223;51.006;7.610;2023-10-31T07:31:06;8.68;;;4.63;;
37339;SDS011;23223;51.006;7.610;2023-10-31T07:33:32;3.95;;;3.33;;
37339;SDS011;23223;51.006;7.610;2023-10-31T07:35:57;6.72;;;3.85;;
37339;SDS011;23223;51.006;7.610;2023-10-31T07:38:23;4.82;;;3.25;;
37339;SDS011;23223;51.006;7.610;2023-10-31T07:40:49;2.60;;;2.40;;
37339;SDS011;23223;51.006;7.610;2023-10-31T07:43:15;3.67;;;3.38;;
37339;SDS011;23223;51.006;7.610;2023-10-31T07:45:41;4.47;;;3.13;;
37339;SDS011;23223;51.006;7.610;2023-10-31T07:48:07;3.65;;;2.95;;
37339;SDS011;23223;51.006;7.610;2023-10-31T07:50:34;2.88;;;2.50;;
37339;SDS011;23223;51.006;7.610;2023-10-31T07:52:59;5.15;;;2.40;;
37339;SDS011;23223;51.006;7.610;2023-10-31T07:55:25;4.25;;;2.58;;
37339;SDS011;23223;51.006;7.610;2023-10-31T07:57:50;3.25;;;2.50;;
37339;SDS011;23223;51.006;7.610;2023-10-31T08:00:16;3.35;;;2.42;;
37339;SDS011;23223;51.006;7.610;2023-10-31T08:02:42;4.07;;;2.40;;
37339;SDS011;23223;51.006;7.610;2023-10-31T08:05:07;5.22;;;2.03;;
37339;SDS011;23223;51.006;7.610;2023-10-31T08:07:35;2.65;;;2.45;;
37339;SDS011;23223;51.006;7.610;2023-10-31T08:10:00;6.47;;;2.58;;
37339;SDS011;23223;51.006;7.610;2023-10-31T08:12:26;5.82;;;3.47;;
37339;SDS011;23223;51.006;7.610;2023-10-31T08:14:52;4.75;;;2.08;;
37339;SDS011;23223;51.006;7.610;2023-10-31T08:17:17;2.30;;;2.10;;
37339;SDS011;23223;51.006;7.610;2023-10-31T08:19:43;4.30;;;2.72;;
37339;SDS011;23223;51.006;7.610;2023-10-31T08:22:08;2.90;;;2.70;;
37339;SDS011;23223;51.006;7.610;2023-10-31T08:24:34;3.50;;;2.67;;
37339;SDS011;23223;51.006;7.610;2023-10-31T08:27:01;3.30;;;2.47;;
37339;SDS011;23223;51.006;7.610;2023-10-31T08:29:29;2.47;;;2.28;;
37339;SDS011;23223;51.006;7.610;2023-10-31T08:31:54;3.05;;;2.60;;
37339;SDS011;23223;51.006;7.610;2023-10-31T08:34:20;4.80;;;3.28;;
37339;SDS011;23223;51.006;7.610;2023-10-31T08:36:45;2.40;;;2.20;;
37339;SDS011;23223;51.006;7.610;2023-10-31T08:39:11;3.80;;;2.35;;
37339;SDS011;23223;51.006;7.610;2023-10-31T08:41:36;4.00;;;3.58;;
37339;SDS011;23223;51.006;7.610;2023-10-31T08:44:04;5.25;;;3.20;;
37339;SDS011;23223;51.006;7.610;2023-10-31T08:46:30;4.82;;;4.40;;
37339;SDS011;23223;51.006;7.610;2023-10-31T08:48:55;2.92;;;2.63;;
37339;SDS011;23223;51.006;7.610;2023-10-31T08:51:21;3.88;;;3.58;;
37339;SDS011;23223;51.006;7.610;2023-10-31T08:53:48;3.95;;;3.55;;
37339;SDS011;23223;51.006;7.610;2023-10-31T08:56:14;4.65;;;3.50;;
37339;SDS011;23223;51.006;7.610;2023-10-31T08:58:39;5.00;;;4.28;;
37339;SDS011;23223;51.006;7.610;2023-10-31T09:01:05;5.57;;;4.43;;
37339;SDS011;23223;51.006;7.610;2023-10-31T09:03:31;8.30;;;4.80;;
37339;SDS011;23223;51.006;7.610;2023-10-31T09:05:57;5.63;;;5.00;;
37339;SDS011;23223;51.006;7.610;2023-10-31T09:08:22;9.27;;;5.55;;
37339;SDS011;23223;51.006;7.610;2023-10-31T09:10:50;4.85;;;4.35;;
37339;SDS011;23223;51.006;7.610;2023-10-31T09:13:16;6.47;;;5.53;;
37339;SDS011;23223;51.006;7.610;2023-10-31T09:15:41;5.55;;;4.63;;
37339;SDS011;23223;51.006;7.610;2023-10-31T09:18:07;6.57;;;4.85;;
37339;SDS011;23223;51.006;7.610;2023-10-31T09:20:32;6.93;;;4.93;;
37339;SDS011;23223;51.006;7.610;2023-10-31T09:22:58;10.77;;;4.80;;
37339;SDS011;23223;51.006;7.610;2023-10-31T09:25:24;5.60;;;3.72;;
37339;SDS011;23223;51.006;7.610;2023-10-31T09:27:49;6.65;;;4.72;;
37339;SDS011;23223;51.006;7.610;2023-10-31T09:30:15;5.28;;;3.63;;
37339;SDS011;23223;51.006;7.610;2023-10-31T09:32:43;9.00;;;4.45;;
37339;SDS011;23223;51.006;7.610;2023-10-31T09:35:08;4.15;;;3.65;;
37339;SDS011;23223;51.006;7.610;2023-10-31T09:37:34;7.07;;;3.55;;
37339;SDS011;23223;51.006;7.610;2023-10-31T09:40:00;7.30;;;4.30;;
37339;SDS011;23223;51.006;7.610;2023-10-31T09:42:25;3.78;;;2.67;;
37339;SDS011;23223;51.006;7.610;2023-10-31T09:44:51;4.43;;;2.90;;
37339;SDS011;23223;51.006;7.610;2023-10-31T09:47:17;6.43;;;3.20;;
37339;SDS011;23223;51.006;7.610;2023-10-31T09:49:45;7.00;;;3.50;;
37339;SDS011;23223;51.006;7.610;2023-10-31T09:52:12;3.45;;;2.97;;
37339;SDS011;23223;51.006;7.610;2023-10-31T09:54:38;3.95;;;3.40;;
37339;SDS011;23223;51.006;7.610;2023-10-31T09:57:06;4.00;;;3.47;;
37339;SDS011;23223;51.006;7.610;2023-10-31T09:59:31;5.40;;;3.50;;
37339;SDS011;23223;51.006;7.610;2023-10-31T10:01:57;8.50;;;3.85;;
37339;SDS011;23223;51.006;7.610;2023-10-31T10:04:23;4.30;;;3.47;;
37339;SDS011;23223;51.006;7.610;2023-10-31T10:06:52;5.50;;;3.55;;
37339;SDS011;23223;51.006;7.610;2023-10-31T10:09:24;4.85;;;3.53;;
37339;SDS011;23223;51.006;7.610;2023-10-31T10:11:51;4.45;;;3.40;;
37339;SDS011;23223;51.006;7.610;2023-10-31T10:14:17;3.10;;;2.20;;
37339;SDS011;23223;51.006;7.610;2023-10-31T10:16:43;4.07;;;3.28;;
37339;SDS011;23223;51.006;7.610;2023-10-31T10:19:18;6.43;;;2.75;;
37339;SDS011;23223;51.006;7.610;2023-10-31T10:21:50;5.30;;;2.95;;
37339;SDS011;23223;51.006;7.610;2023-10-31T10:24:19;6.30;;;2.80;;
37339;SDS011;23223;51.006;7.610;2023-10-31T10:26:46;4.18;;;2.95;;
37339;SDS011;23223;51.006;7.610;2023-10-31T10:29:12;4.90;;;3.05;;
37339;SDS011;23223;51.006;7.610;2023-10-31T10:31:38;9.20;;;3.03;;
37339;SDS011;23223;51.006;7.610;2023-10-31T10:34:05;2.55;;;2.17;;
37339;SDS011;23223;51.006;7.610;2023-10-31T10:36:32;5.78;;;2.72;;
37339;SDS011;23223;51.006;7.610;2023-10-31T10:38:58;4.32;;;3.33;;
37339;SDS011;23223;51.006;7.610;2023-10-31T10:41:25;4.47;;;2.78;;
37339;SDS011;23223;51.006;7.610;2023-10-31T10:44:04;2.75;;;2.55;;
37339;SDS011;23223;51.006;7.610;2023-10-31T10:46:34;2.78;;;2.35;;
37339;SDS011;23223;51.006;7.610;2023-10-31T10:49:05;3.97;;;2.60;;
37339;SDS011;23223;51.006;7.610;2023-10-31T10:51:40;2.28;;;1.90;;
37339;SDS011;23223;51.006;7.610;2023-10-31T10:54:18;4.03;;;2.25;;
37339;SDS011;23223;51.006;7.610;2023-10-31T10:56:55;8.52;;;2.00;;
37339;SDS011;23223;51.006;7.610;2023-10-31T10:59:38;3.88;;;2.00;;
37339;SDS011;23223;51.006;7.610;2023-10-31T11:02:06;3.33;;;2.67;;
37339;SDS011;23223;51.006;7.610;2023-10-31T11:04:33;2.40;;;2.20;;
37339;SDS011;23223;51.006;7.610;2023-10-31T11:06:59;8.15;;;2.08;;
37339;SDS011;23223;51.006;7.610;2023-10-31T11:09:25;2.33;;;1.88;;
37339;SDS011;23223;51.006;7.610;2023-10-31T11:11:51;7.70;;;2.17;;
37339;SDS011;23223;51.006;7.610;2023-10-31T11:14:18;4.72;;;2.22;;
37339;SDS011;23223;51.006;7.610;2023-10-31T11:16:45;2.25;;;1.25;;
37339;SDS011;23223;51.006;7.610;2023-10-31T11:19:16;3.88;;;1.92;;
37339;SDS011;23223;51.006;7.610;2023-10-31T11:24:20;3.55;;;2.20;;
37339;SDS011;23223;51.006;7.610;2023-10-31T11:26:51;2.67;;;1.98;;
37339;SDS011;23223;51.006;7.610;2023-10-31T11:29:17;3.25;;;1.75;;
37339;SDS011;23223;51.006;7.610;2023-10-31T11:31:44;4.78;;;1.35;;
37339;SDS011;23223;51.006;7.610;2023-10-31T11:34:11;1.50;;;1.40;;
37339;SDS011;23223;51.006;7.610;2023-10-31T11:36:37;1.65;;;1.20;;
37339;SDS011;23223;51.006;7.610;2023-10-31T11:39:12;1.70;;;1.60;;
37339;SDS011;23223;51.006;7.610;2023-10-31T11:41:53;5.57;;;1.60;;
37339;SDS011;23223;51.006;7.610;2023-10-31T11:44:23;6.28;;;1.60;;
37339;SDS011;23223;51.006;7.610;2023-10-31T11:46:51;2.47;;;1.25;;
37339;SDS011;23223;51.006;7.610;2023-10-31T11:49:17;3.67;;;1.50;;
37339;SDS011;23223;51.006;7.610;2023-10-31T11:52:13;1.98;;;1.52;;
37339;SDS011;23223;51.006;7.610;2023-10-31T11:54:43;3.13;;;1.70;;
37339;SDS011;23223;51.006;7.610;2023-10-31T11:57:09;1.65;;;1.30;;
37339;SDS011;23223;51.006;7.610;2023-10-31T11:59:37;2.85;;;1.50;;
37339;SDS011;23223;51.006;7.610;2023-10-31T12:02:13;1.23;;;1.13;;
37339;SDS011;23223;51.006;7.610;2023-10-31T12:04:40;1.10;;;0.93;;
37339;SDS011;23223;51.006;7.610;2023-10-31T12:07:05;4.07;;;0.95;;
37339;SDS011;23223;51.006;7.610;2023-10-31T12:09:31;1.30;;;0.70;;
37339;SDS011;23223;51.006;7.610;2023-10-31T12:11:57;7.70;;;1.23;;
37339;SDS011;23223;51.006;7.610;2023-10-31T12:14:22;2.15;;;0.93;;
37339;SDS011;23223;51.006;7.610;2023-10-31T12:16:50;2.70;;;0.90;;
37339;SDS011;23223;51.006;7.610;2023-10-31T12:19:16;2.65;;;1.08;;
37339;SDS011;23223;51.006;7.610;2023-10-31T12:21:45;1.08;;;0.80;;
37339;SDS011;23223;51.006;7.610;2023-10-31T12:24:13;1.42;;;0.85;;
37339;SDS011;23223;51.006;7.610;2023-10-31T12:26:40;1.35;;;0.90;;
37339;SDS011;23223;51.006;7.610;2023-10-31T12:31:38;1.38;;;0.90;;
37339;SDS011;23223;51.006;7.610;2023-10-31T12:34:05;5.80;;;1.17;;
37339;SDS011;23223;51.006;7.610;2023-10-31T12:36:31;1.92;;;0.85;;
37339;SDS011;23223;51.006;7.610;2023-10-31T12:38:58;3.25;;;0.70;;
37339;SDS011;23223;51.006;7.610;2023-10-31T12:41:28;1.70;;;0.90;;
37339;SDS011;23223;51.006;7.610;2023-10-31T12:43:54;3.15;;;0.80;;
37339;SDS011;23223;51.006;7.610;2023-10-31T12:46:29;0.90;;;0.90;;
37339;SDS011;23223;51.006;7.610;2023-10-31T12:48:56;4.50;;;0.77;;
37339;SDS011;23223;51.006;7.610;2023-10-31T12:51:22;0.60;;;0.60;;
37339;SDS011;23223;51.006;7.610;2023-10-31T12:53:51;1.67;;;0.70;;
37339;SDS011;23223;51.006;7.610;2023-10-31T12:59:04;1.20;;;0.70;;
37339;SDS011;23223;51.006;7.610;2023-10-31T13:01:41;0.75;;;0.50;;
37339;SDS011;23223;51.006;7.610;2023-10-31T13:04:08;3.88;;;1.10;;
37339;SDS011;23223;51.006;7.610;2023-10-31T13:06:34;1.27;;;0.77;;
37339;SDS011;23223;51.006;7.610;2023-10-31T13:09:00;2.40;;;1.10;;
37339;SDS011;23223;51.006;7.610;2023-10-31T13:11:31;2.58;;;0.88;;
37339;SDS011;23223;51.006;7.610;2023-10-31T13:13:57;2.20;;;0.90;;
37339;SDS011;23223;51.006;7.610;2023-10-31T13:16:26;2.88;;;0.70;;
37339;SDS011;23223;51.006;7.610;2023-10-31T13:18:53;6.88;;;1.17;;
37339;SDS011;23223;51.006;7.610;2023-10-31T13:21:19;3.28;;;0.90;;
37339;SDS011;23223;51.006;7.610;2023-10-31T13:23:45;3.03;;;1.10;;
37339;SDS011;23223;51.006;7.610;2023-10-31T13:26:12;3.80;;;1.27;;
37339;SDS011;23223;51.006;7.610;2023-10-31T13:28:38;1.77;;;0.88;;
37339;SDS011;23223;51.006;7.610;2023-10-31T13:31:06;3.70;;;0.98;;
37339;SDS011;23223;51.006;7.610;2023-10-31T13:33:33;1.42;;;0.60;;
37339;SDS011;23223;51.006;7.610;2023-10-31T13:35:59;4.80;;;1.27;;
37339;SDS011;23223;51.006;7.610;2023-10-31T13:38:24;2.50;;;0.85;;
37339;SDS011;23223;51.006;7.610;2023-10-31T13:40:50;2.05;;;0.80;;
37339;SDS011;23223;51.006;7.610;2023-10-31T13:43:15;4.18;;;0.60;;
37339;SDS011;23223;51.006;7.610;2023-10-31T13:45:41;4.78;;;0.77;;
37339;SDS011;23223;51.006;7.610;2023-10-31T13:48:07;1.85;;;0.90;;
37339;SDS011;23223;51.006;7.610;2023-10-31T13:50:32;6.95;;;1.08;;
37339;SDS011;23223;51.006;7.610;2023-10-31T13:53:00;6.03;;;1.13;;
37339;SDS011;23223;51.006;7.610;2023-10-31T13:55:28;1.88;;;0.60;;
37339;SDS011;23223;51.006;7.610;2023-10-31T13:57:53;3.95;;;1.02;;
37339;SDS011;23223;51.006;7.610;2023-10-31T14:00:19;2.00;;;0.80;;
37339;SDS011;23223;51.006;7.610;2023-10-31T14:02:44;6.10;;;1.00;;
37339;SDS011;23223;51.006;7.610;2023-10-31T14:05:10;4.40;;;1.10;;
37339;SDS011;23223;51.006;7.610;2023-10-31T14:07:36;2.88;;;0.93;;
37339;SDS011;23223;51.006;7.610;2023-10-31T14:10:02;2.47;;;0.85;;
37339;SDS011;23223;51.006;7.610;2023-10-31T14:12:27;2.20;;;0.90;;
37339;SDS011;23223;51.006;7.610;2023-10-31T14:14:53;2.10;;;1.08;;
37339;SDS011;23223;51.006;7.610;2023-10-31T14:17:19;5.03;;;1.13;;
37339;SDS011;23223;51.006;7.610;2023-10-31T14:19:47;2.53;;;0.85;;
37339;SDS011;23223;51.006;7.610;2023-10-31T14:22:13;4.80;;;0.55;;
37339;SDS011;23223;51.006;7.610;2023-10-31T14:24:39;3.20;;;1.02;;
37339;SDS011;23223;51.006;7.610;2023-10-31T14:27:05;2.25;;;0.98;;
37339;SDS011;23223;51.006;7.610;2023-10-31T14:29:30;1.52;;;0.88;;
37339;SDS011;23223;51.006;7.610;2023-10-31T14:31:56;3.83;;;1.02;;
37339;SDS011;23223;51.006;7.610;2023-10-31T14:34:22;1.27;;;0.75;;
37339;SDS011;23223;51.006;7.610;2023-10-31T14:36:48;3.20;;;1.00;;
37339;SDS011;23223;51.006;7.610;2023-10-31T14:39:14;2.35;;;0.82;;
37339;SDS011;23223;51.006;7.610;2023-10-31T14:41:39;2.97;;;0.70;;
37339;SDS011;23223;51.006;7.610;2023-10-31T14:44:05;7.57;;;1.35;;
37339;SDS011;23223;51.006;7.610;2023-10-31T14:46:31;2.45;;;0.95;;
37339;SDS011;23223;51.006;7.610;2023-10-31T14:48:57;4.55;;;1.38;;
37339;SDS011;23223;51.006;7.610;2023-10-31T14:51:23;1.63;;;0.60;;
37339;SDS011;23223;51.006;7.610;2023-10-31T14:53:48;1.77;;;0.85;;
37339;SDS011;23223;51.006;7.610;2023-10-31T14:56:14;2.08;;;1.17;;